AFR025 KLAX-LFPG
Flight info
| Callsign | AFR025 |
|---|---|
| Flight time | N/A |
| Altitude | 38000 |
| Route | KLAX OSHNN1 BEALE DCT EEVUN DCT BCE DCT MBW DCT RAP DCT KP06A DCT MISAX DCT PELEE DCT BROME DCT LOMSI DCT 55N050W DCT 57N040W DCT 58N030W DCT 56N020W DCT PIKIL DCT SOVED DCT LUTOV DCT MAKUX DCT SOSIM L15 KEPAD L151 MID Y803 SFD UM605 BIBAX BIBA9D LFPG |
| Aircraft | B77W/H-L/FMC |
Departure
| Time | 2026-04-22 02:13 |
|---|---|
| Airport | Los Angeles International Airport (KLAX) |
Arrival
| Time | N/A |
|---|---|
| Airport | Charles de Gaulle International Airport (LFPG) |
| Time | Latitude | Longitude | Altitude | Speed | Heading |
|---|---|---|---|---|---|
| 2026-04-22 01:55 | 33.94525 | -118.41169 | 130 ft | 0 kts | 99° |
| 2026-04-22 02:04 | 33.94532 | -118.41228 | 129 ft | 4 kts | 95° |
| 2026-04-22 02:04 | 33.94532 | -118.41243 | 130 ft | 1 kts | 62° |
| 2026-04-22 02:04 | 33.94526 | -118.41253 | 130 ft | 1 kts | 37° |
| 2026-04-22 02:05 | 33.94514 | -118.41259 | 130 ft | 4 kts | 358° |
| 2026-04-22 02:05 | 33.94508 | -118.41259 | 130 ft | 0 kts | 353° |
| 2026-04-22 02:07 | 33.94520 | -118.41260 | 130 ft | 7 kts | 354° |
| 2026-04-22 02:08 | 33.94600 | -118.41271 | 127 ft | 13 kts | 353° |
| 2026-04-22 02:08 | 33.94691 | -118.41285 | 127 ft | 13 kts | 353° |
| 2026-04-22 02:08 | 33.94773 | -118.41283 | 126 ft | 11 kts | 26° |
| 2026-04-22 02:08 | 33.94803 | -118.41203 | 126 ft | 11 kts | 83° |
| 2026-04-22 02:09 | 33.94812 | -118.41112 | 129 ft | 11 kts | 82° |
| 2026-04-22 02:09 | 33.94822 | -118.41020 | 129 ft | 11 kts | 83° |
| 2026-04-22 02:09 | 33.94832 | -118.40928 | 126 ft | 11 kts | 83° |
| 2026-04-22 02:09 | 33.94841 | -118.40837 | 130 ft | 11 kts | 83° |
| 2026-04-22 02:10 | 33.94850 | -118.40745 | 129 ft | 11 kts | 84° |
| 2026-04-22 02:10 | 33.94859 | -118.40653 | 130 ft | 11 kts | 83° |
| 2026-04-22 02:10 | 33.94868 | -118.40562 | 129 ft | 11 kts | 83° |
| 2026-04-22 02:10 | 33.94877 | -118.40470 | 126 ft | 11 kts | 83° |
| 2026-04-22 02:11 | 33.94886 | -118.40379 | 128 ft | 11 kts | 82° |
| 2026-04-22 02:11 | 33.94896 | -118.40288 | 129 ft | 11 kts | 82° |
| 2026-04-22 02:11 | 33.94907 | -118.40196 | 126 ft | 11 kts | 82° |
| 2026-04-22 02:11 | 33.94916 | -118.40105 | 127 ft | 11 kts | 83° |
| 2026-04-22 02:12 | 33.94925 | -118.40013 | 130 ft | 11 kts | 83° |
| 2026-04-22 02:12 | 33.94955 | -118.39930 | 127 ft | 11 kts | 47° |
| 2026-04-22 02:12 | 33.95027 | -118.39931 | 126 ft | 11 kts | 329° |
| 2026-04-22 02:12 | 33.95040 | -118.39993 | 125 ft | 4 kts | 261° |
| 2026-04-22 02:13 | 33.95010 | -118.40286 | 129 ft | 84 kts | 263° |
| 2026-04-22 02:13 | 33.94891 | -118.41415 | 133 ft | 185 kts | 263° |
| 2026-04-22 02:13 | 33.94712 | -118.43086 | 1041 ft | 205 kts | 263° |
| 2026-04-22 02:13 | 33.94530 | -118.44807 | 2605 ft | 208 kts | 264° |
| 2026-04-22 02:14 | 33.94355 | -118.46645 | 2985 ft | 232 kts | 266° |
| 2026-04-22 02:14 | 33.94274 | -118.48600 | 3749 ft | 238 kts | 268° |
| 2026-04-22 02:14 | 33.94223 | -118.50617 | 4534 ft | 242 kts | 268° |
| 2026-04-22 02:14 | 33.94113 | -118.52634 | 5403 ft | 241 kts | 264° |
| 2026-04-22 02:15 | 33.93715 | -118.54587 | 6085 ft | 247 kts | 240° |
| 2026-04-22 02:15 | 33.92439 | -118.55996 | 6762 ft | 258 kts | 207° |
| 2026-04-22 02:15 | 33.90667 | -118.56484 | 7487 ft | 268 kts | 184° |
| 2026-04-22 02:15 | 33.88781 | -118.56287 | 8310 ft | 274 kts | 175° |
| 2026-04-22 02:16 | 33.86890 | -118.55876 | 9163 ft | 278 kts | 174° |
| 2026-04-22 02:16 | 33.84978 | -118.55426 | 10026 ft | 281 kts | 175° |
| 2026-04-22 02:16 | 33.83028 | -118.54973 | 10641 ft | 292 kts | 175° |
| 2026-04-22 02:16 | 33.80936 | -118.54505 | 10849 ft | 319 kts | 175° |
| 2026-04-22 02:17 | 33.78658 | -118.54007 | 11047 ft | 345 kts | 175° |
| 2026-04-22 02:17 | 33.76210 | -118.53482 | 11253 ft | 370 kts | 175° |
| 2026-04-22 02:17 | 33.73630 | -118.52908 | 11796 ft | 380 kts | 172° |
| 2026-04-22 02:17 | 33.71138 | -118.51632 | 12325 ft | 405 kts | 150° |
| 2026-04-22 02:18 | 33.69075 | -118.49218 | 13064 ft | 424 kts | 130° |
| 2026-04-22 02:18 | 33.67732 | -118.46010 | 13827 ft | 437 kts | 113° |
| 2026-04-22 02:18 | 33.66789 | -118.42499 | 14371 ft | 446 kts | 111° |
| 2026-04-22 02:18 | 33.65833 | -118.38970 | 15016 ft | 453 kts | 111° |
| 2026-04-22 02:19 | 33.65053 | -118.35263 | 15732 ft | 461 kts | 104° |
| 2026-04-22 02:19 | 33.64549 | -118.31432 | 16454 ft | 468 kts | 99° |
| 2026-04-22 02:19 | 33.64347 | -118.27511 | 17152 ft | 475 kts | 92° |
| 2026-04-22 02:19 | 33.64422 | -118.23530 | 17740 ft | 478 kts | 86° |
| 2026-04-22 02:20 | 33.65245 | -118.19621 | 18166 ft | 489 kts | 65° |
| 2026-04-22 02:20 | 33.66997 | -118.16107 | 18724 ft | 492 kts | 49° |
| 2026-04-22 02:20 | 33.69411 | -118.13227 | 19302 ft | 485 kts | 34° |
| 2026-04-22 02:20 | 33.72129 | -118.10812 | 19825 ft | 490 kts | 31° |
| 2026-04-22 02:21 | 33.74924 | -118.08425 | 20376 ft | 495 kts | 31° |
| 2026-04-22 02:21 | 33.77751 | -118.05997 | 20951 ft | 500 kts | 31° |
| 2026-04-22 02:21 | 33.80573 | -118.03526 | 21516 ft | 505 kts | 32° |
| 2026-04-22 02:21 | 33.83413 | -118.00992 | 22079 ft | 510 kts | 32° |
| 2026-04-22 02:22 | 33.85297 | -117.99294 | 22415 ft | 513 kts | 32° |
| 2026-04-22 02:22 | 33.88238 | -117.96639 | 22929 ft | 518 kts | 32° |
| 2026-04-22 02:22 | 33.91134 | -117.94027 | 23269 ft | 523 kts | 32° |
| 2026-04-22 02:22 | 33.94057 | -117.91366 | 23553 ft | 527 kts | 32° |
| 2026-04-22 02:23 | 33.96977 | -117.88690 | 23876 ft | 528 kts | 32° |
| 2026-04-22 02:23 | 33.99911 | -117.86000 | 24145 ft | 531 kts | 32° |
| 2026-04-22 02:23 | 34.02857 | -117.83302 | 24400 ft | 533 kts | 32° |
| 2026-04-22 02:23 | 34.05817 | -117.80587 | 24656 ft | 536 kts | 33° |
| 2026-04-22 02:24 | 34.08682 | -117.77661 | 24876 ft | 542 kts | 39° |
| 2026-04-22 02:24 | 34.11313 | -117.74454 | 25095 ft | 548 kts | 46° |
| 2026-04-22 02:24 | 34.13771 | -117.70841 | 25325 ft | 552 kts | 49° |
| 2026-04-22 02:24 | 34.16154 | -117.67201 | 25577 ft | 553 kts | 49° |
| 2026-04-22 02:25 | 34.18515 | -117.63598 | 25809 ft | 555 kts | 49° |
| 2026-04-22 02:25 | 34.20876 | -117.60033 | 26045 ft | 557 kts | 48° |
| 2026-04-22 02:25 | 34.23308 | -117.56396 | 26250 ft | 558 kts | 48° |
| 2026-04-22 02:25 | 34.25766 | -117.52748 | 26372 ft | 561 kts | 48° |
| 2026-04-22 02:26 | 34.28229 | -117.49087 | 26678 ft | 561 kts | 48° |
| 2026-04-22 02:26 | 34.30689 | -117.45419 | 26901 ft | 562 kts | 49° |
| 2026-04-22 02:26 | 34.33157 | -117.41732 | 27090 ft | 565 kts | 49° |
| 2026-04-22 02:26 | 34.35642 | -117.38016 | 27266 ft | 567 kts | 49° |
| 2026-04-22 02:27 | 34.38130 | -117.34291 | 27467 ft | 569 kts | 49° |
| 2026-04-22 02:27 | 34.39784 | -117.31813 | 27603 ft | 570 kts | 49° |
| 2026-04-22 02:27 | 34.42280 | -117.28068 | 27802 ft | 571 kts | 49° |
| 2026-04-22 02:27 | 34.44778 | -117.24317 | 27973 ft | 573 kts | 49° |
| 2026-04-22 02:28 | 34.47284 | -117.20549 | 28137 ft | 575 kts | 49° |
| 2026-04-22 02:28 | 34.49791 | -117.16776 | 28293 ft | 576 kts | 49° |
| 2026-04-22 02:28 | 34.52312 | -117.12979 | 28455 ft | 578 kts | 49° |
| 2026-04-22 02:28 | 34.54832 | -117.09184 | 28582 ft | 579 kts | 49° |
| 2026-04-22 02:29 | 34.57396 | -117.05396 | 28741 ft | 580 kts | 48° |
| 2026-04-22 02:29 | 34.59982 | -117.01639 | 28871 ft | 581 kts | 48° |
| 2026-04-22 02:29 | 34.62581 | -116.97886 | 29004 ft | 582 kts | 48° |
| 2026-04-22 02:29 | 34.65190 | -116.94113 | 29214 ft | 582 kts | 48° |
| 2026-04-22 02:30 | 34.67778 | -116.90351 | 29546 ft | 579 kts | 48° |
| 2026-04-22 02:30 | 34.70354 | -116.86591 | 29842 ft | 577 kts | 49° |
| 2026-04-22 02:30 | 34.72892 | -116.82874 | 30090 ft | 576 kts | 49° |
| 2026-04-22 02:30 | 34.75448 | -116.79124 | 30283 ft | 576 kts | 49° |
| 2026-04-22 02:31 | 34.77998 | -116.75379 | 30461 ft | 576 kts | 49° |
| 2026-04-22 02:31 | 34.80550 | -116.71631 | 30702 ft | 574 kts | 49° |
| 2026-04-22 02:31 | 34.83090 | -116.67896 | 30992 ft | 571 kts | 49° |
| 2026-04-22 02:31 | 34.85627 | -116.64165 | 31146 ft | 572 kts | 49° |
| 2026-04-22 02:32 | 34.88217 | -116.60482 | 31284 ft | 572 kts | 46° |
| 2026-04-22 02:32 | 34.90897 | -116.56879 | 31478 ft | 570 kts | 45° |
| 2026-04-22 02:32 | 34.93591 | -116.53353 | 31851 ft | 565 kts | 45° |
| 2026-04-22 02:32 | 34.96256 | -116.49880 | 32303 ft | 559 kts | 45° |
| 2026-04-22 02:33 | 34.98901 | -116.46413 | 32589 ft | 557 kts | 45° |
| 2026-04-22 02:33 | 35.01533 | -116.42931 | 32703 ft | 559 kts | 45° |
| 2026-04-22 02:33 | 35.04164 | -116.39421 | 32744 ft | 562 kts | 46° |
| 2026-04-22 02:34 | 35.09401 | -116.32378 | 32894 ft | 565 kts | 46° |
| 2026-04-22 02:34 | 35.14710 | -116.25210 | 32955 ft | 570 kts | 46° |
| 2026-04-22 02:35 | 35.20036 | -116.18015 | 32938 ft | 571 kts | 46° |
| 2026-04-22 02:35 | 35.25364 | -116.10807 | 32934 ft | 570 kts | 46° |
| 2026-04-22 02:36 | 35.30671 | -116.03614 | 32946 ft | 570 kts | 46° |
| 2026-04-22 02:36 | 35.35998 | -115.96379 | 32948 ft | 572 kts | 46° |
| 2026-04-22 02:37 | 35.41323 | -115.89129 | 32943 ft | 571 kts | 46° |
| 2026-04-22 02:37 | 35.46625 | -115.81895 | 32940 ft | 569 kts | 47° |
| 2026-04-22 02:38 | 35.51875 | -115.74716 | 32947 ft | 567 kts | 47° |
| 2026-04-22 02:38 | 35.57173 | -115.67458 | 32954 ft | 567 kts | 47° |
| 2026-04-22 02:39 | 35.62394 | -115.60288 | 32938 ft | 567 kts | 47° |
| 2026-04-22 02:39 | 35.67647 | -115.53059 | 32937 ft | 566 kts | 47° |
| 2026-04-22 02:40 | 35.72764 | -115.46004 | 32942 ft | 567 kts | 47° |
| 2026-04-22 02:40 | 35.78010 | -115.38746 | 32906 ft | 565 kts | 47° |
| 2026-04-22 02:41 | 35.83233 | -115.31501 | 32907 ft | 565 kts | 47° |
| 2026-04-22 02:41 | 35.88432 | -115.24275 | 32897 ft | 565 kts | 47° |
| 2026-04-22 02:42 | 35.93650 | -115.17009 | 32896 ft | 565 kts | 47° |
| 2026-04-22 02:42 | 35.98864 | -115.09731 | 32902 ft | 565 kts | 47° |
| 2026-04-22 02:43 | 36.04062 | -115.02461 | 32898 ft | 566 kts | 47° |
| 2026-04-22 02:43 | 36.09295 | -114.95125 | 32841 ft | 568 kts | 48° |
| 2026-04-22 02:44 | 36.14495 | -114.87819 | 32790 ft | 567 kts | 48° |
| 2026-04-22 02:44 | 36.19749 | -114.80540 | 32777 ft | 567 kts | 46° |
| 2026-04-22 02:45 | 36.25247 | -114.73528 | 32763 ft | 566 kts | 44° |
| 2026-04-22 02:45 | 36.30809 | -114.66581 | 32730 ft | 566 kts | 44° |
| 2026-04-22 02:46 | 36.36322 | -114.59624 | 32726 ft | 565 kts | 45° |
| 2026-04-22 02:46 | 36.41811 | -114.52628 | 32711 ft | 566 kts | 45° |
| 2026-04-22 02:47 | 36.47291 | -114.45617 | 32710 ft | 566 kts | 45° |
| 2026-04-22 02:47 | 36.52772 | -114.38593 | 32718 ft | 566 kts | 45° |
| 2026-04-22 02:48 | 36.58255 | -114.31557 | 32711 ft | 566 kts | 45° |
| 2026-04-22 02:48 | 36.63735 | -114.24511 | 32718 ft | 566 kts | 45° |
| 2026-04-22 02:49 | 36.69203 | -114.17464 | 32717 ft | 565 kts | 46° |
| 2026-04-22 02:49 | 36.74662 | -114.10414 | 32722 ft | 564 kts | 46° |
| 2026-04-22 02:50 | 36.80128 | -114.03338 | 32736 ft | 564 kts | 46° |
| 2026-04-22 02:50 | 36.85565 | -113.96284 | 32745 ft | 565 kts | 46° |
| 2026-04-22 02:51 | 36.91002 | -113.89215 | 32753 ft | 564 kts | 46° |
| 2026-04-22 02:51 | 36.96456 | -113.82106 | 32788 ft | 564 kts | 46° |
| 2026-04-22 02:52 | 37.01852 | -113.75049 | 32820 ft | 564 kts | 48° |
| 2026-04-22 02:52 | 37.06701 | -113.67363 | 32838 ft | 562 kts | 60° |
| 2026-04-22 02:53 | 37.10633 | -113.58901 | 32856 ft | 562 kts | 63° |
| 2026-04-22 02:53 | 37.14507 | -113.50314 | 32848 ft | 563 kts | 63° |
| 2026-04-22 02:54 | 37.18387 | -113.41826 | 32830 ft | 562 kts | 63° |
| 2026-04-22 02:54 | 37.22299 | -113.33338 | 32820 ft | 562 kts | 63° |
| 2026-04-22 02:55 | 37.26209 | -113.24843 | 32820 ft | 562 kts | 63° |
| 2026-04-22 02:55 | 37.30118 | -113.16315 | 32812 ft | 562 kts | 63° |
| 2026-04-22 02:56 | 37.33994 | -113.07829 | 32831 ft | 561 kts | 63° |
| 2026-04-22 02:56 | 37.37869 | -112.99323 | 32849 ft | 560 kts | 63° |
| 2026-04-22 02:57 | 37.41737 | -112.90815 | 32857 ft | 558 kts | 63° |
| 2026-04-22 02:57 | 37.45585 | -112.82324 | 32869 ft | 557 kts | 63° |
| 2026-04-22 02:58 | 37.49406 | -112.73871 | 32873 ft | 556 kts | 63° |
| 2026-04-22 02:58 | 37.53224 | -112.65404 | 32880 ft | 554 kts | 63° |
| 2026-04-22 02:59 | 37.57049 | -112.56899 | 32871 ft | 554 kts | 63° |
| 2026-04-22 02:59 | 37.60833 | -112.48464 | 32945 ft | 552 kts | 63° |
| 2026-04-22 03:00 | 37.64611 | -112.40018 | 32999 ft | 552 kts | 63° |
| 2026-04-22 03:00 | 37.68485 | -112.31688 | 33055 ft | 554 kts | 57° |
| 2026-04-22 03:01 | 37.73303 | -112.24072 | 33095 ft | 556 kts | 47° |
| 2026-04-22 03:01 | 37.78581 | -112.16932 | 33102 ft | 557 kts | 47° |
| 2026-04-22 03:02 | 37.83012 | -112.10934 | 33075 ft | 557 kts | 47° |
| 2026-04-22 03:02 | 37.88293 | -112.03686 | 33025 ft | 556 kts | 48° |
| 2026-04-22 03:03 | 37.93475 | -111.96499 | 32957 ft | 554 kts | 48° |
| 2026-04-22 03:03 | 37.98648 | -111.89299 | 32918 ft | 554 kts | 48° |
| 2026-04-22 03:04 | 38.03838 | -111.82068 | 32906 ft | 554 kts | 48° |
| 2026-04-22 03:04 | 38.08973 | -111.74902 | 32914 ft | 554 kts | 48° |
| 2026-04-22 03:05 | 38.14142 | -111.67675 | 32907 ft | 553 kts | 48° |
| 2026-04-22 03:05 | 38.19309 | -111.60432 | 32899 ft | 551 kts | 49° |
| 2026-04-22 03:06 | 38.24455 | -111.53202 | 32914 ft | 551 kts | 49° |
| 2026-04-22 03:06 | 38.29600 | -111.45958 | 32894 ft | 550 kts | 49° |
| 2026-04-22 03:07 | 38.34737 | -111.38706 | 32881 ft | 550 kts | 49° |
| 2026-04-22 03:07 | 38.39829 | -111.31502 | 32857 ft | 549 kts | 49° |
| 2026-04-22 03:08 | 38.44945 | -111.24251 | 32855 ft | 549 kts | 49° |
| 2026-04-22 03:08 | 38.49991 | -111.17079 | 32844 ft | 549 kts | 49° |
| 2026-04-22 03:09 | 38.55183 | -111.09682 | 32825 ft | 548 kts | 49° |
| 2026-04-22 03:09 | 38.60246 | -111.02454 | 32824 ft | 546 kts | 49° |
| 2026-04-22 03:10 | 38.65323 | -110.95190 | 32828 ft | 546 kts | 49° |
| 2026-04-22 03:10 | 38.70357 | -110.87971 | 32826 ft | 545 kts | 49° |
| 2026-04-22 03:11 | 38.75401 | -110.80721 | 32816 ft | 544 kts | 49° |
| 2026-04-22 03:11 | 38.80430 | -110.73474 | 32812 ft | 544 kts | 49° |
| 2026-04-22 03:12 | 38.85451 | -110.66223 | 32803 ft | 542 kts | 50° |
| 2026-04-22 03:12 | 38.92954 | -110.55357 | 32801 ft | 541 kts | 50° |
| 2026-04-22 03:13 | 38.97935 | -110.48122 | 32797 ft | 541 kts | 50° |
| 2026-04-22 03:13 | 39.02909 | -110.40880 | 32801 ft | 541 kts | 50° |
| 2026-04-22 03:14 | 39.07913 | -110.33577 | 32804 ft | 541 kts | 50° |
| 2026-04-22 03:14 | 39.12876 | -110.26319 | 32804 ft | 541 kts | 50° |
| 2026-04-22 03:15 | 39.17829 | -110.19058 | 32809 ft | 540 kts | 50° |
| 2026-04-22 03:15 | 39.22774 | -110.11794 | 32829 ft | 539 kts | 50° |
| 2026-04-22 03:16 | 39.27709 | -110.04523 | 32822 ft | 538 kts | 50° |
| 2026-04-22 03:16 | 39.32635 | -109.97251 | 32818 ft | 536 kts | 50° |
| 2026-04-22 03:17 | 39.37525 | -109.90016 | 32841 ft | 533 kts | 50° |
| 2026-04-22 03:17 | 39.42429 | -109.82743 | 32842 ft | 534 kts | 50° |
| 2026-04-22 03:18 | 39.47273 | -109.75542 | 32839 ft | 533 kts | 50° |
| 2026-04-22 03:18 | 39.52163 | -109.68254 | 32833 ft | 532 kts | 50° |
| 2026-04-22 03:19 | 39.56990 | -109.61047 | 32824 ft | 530 kts | 50° |
| 2026-04-22 03:19 | 39.61833 | -109.53799 | 32823 ft | 529 kts | 50° |
| 2026-04-22 03:20 | 39.66660 | -109.46554 | 32821 ft | 530 kts | 50° |
| 2026-04-22 03:20 | 39.71471 | -109.39318 | 32820 ft | 531 kts | 50° |
| 2026-04-22 03:21 | 39.76295 | -109.32047 | 32812 ft | 530 kts | 50° |
| 2026-04-22 03:21 | 39.81104 | -109.24781 | 32801 ft | 530 kts | 50° |
| 2026-04-22 03:22 | 39.85896 | -109.17522 | 32803 ft | 530 kts | 50° |
| 2026-04-22 03:22 | 39.90699 | -109.10232 | 32800 ft | 530 kts | 50° |
| 2026-04-22 03:23 | 39.95511 | -109.02909 | 32801 ft | 529 kts | 50° |
| 2026-04-22 03:23 | 40.00286 | -108.95626 | 32804 ft | 528 kts | 50° |
| 2026-04-22 03:24 | 40.05068 | -108.88317 | 32802 ft | 527 kts | 50° |
| 2026-04-22 03:24 | 40.09820 | -108.81034 | 32812 ft | 527 kts | 50° |
| 2026-04-22 03:25 | 40.14561 | -108.73751 | 32813 ft | 528 kts | 50° |
| 2026-04-22 03:25 | 40.19308 | -108.66442 | 32810 ft | 526 kts | 51° |
| 2026-04-22 03:26 | 40.24070 | -108.59091 | 32819 ft | 526 kts | 50° |
| 2026-04-22 03:26 | 40.28799 | -108.51776 | 32836 ft | 526 kts | 51° |
| 2026-04-22 03:27 | 40.33497 | -108.44491 | 32821 ft | 526 kts | 50° |
| 2026-04-22 03:27 | 40.38219 | -108.37151 | 32819 ft | 526 kts | 50° |
| 2026-04-22 03:28 | 40.42922 | -108.29824 | 32845 ft | 525 kts | 51° |
| 2026-04-22 03:28 | 40.47641 | -108.22452 | 32839 ft | 525 kts | 51° |
| 2026-04-22 03:29 | 40.52323 | -108.15122 | 32840 ft | 524 kts | 51° |
| 2026-04-22 03:29 | 40.57000 | -108.07784 | 32871 ft | 524 kts | 51° |
| 2026-04-22 03:30 | 40.61702 | -108.00386 | 32865 ft | 524 kts | 51° |
| 2026-04-22 03:30 | 40.66373 | -107.93021 | 32877 ft | 524 kts | 51° |
| 2026-04-22 03:31 | 40.71034 | -107.85653 | 32921 ft | 523 kts | 51° |
| 2026-04-22 03:31 | 40.75677 | -107.78296 | 32908 ft | 523 kts | 51° |
| 2026-04-22 03:32 | 40.80320 | -107.70922 | 32938 ft | 523 kts | 51° |
| 2026-04-22 03:32 | 40.84963 | -107.63530 | 32999 ft | 522 kts | 51° |
| 2026-04-22 03:33 | 40.89591 | -107.56144 | 33037 ft | 522 kts | 51° |
| 2026-04-22 03:33 | 40.94242 | -107.48703 | 33109 ft | 524 kts | 51° |
| 2026-04-22 03:34 | 40.96547 | -107.45008 | 33335 ft | 523 kts | 51° |
| 2026-04-22 03:34 | 40.98086 | -107.42539 | 33475 ft | 522 kts | 51° |
| 2026-04-22 03:34 | 41.00414 | -107.38800 | 33591 ft | 523 kts | 51° |
| 2026-04-22 03:34 | 41.03481 | -107.33867 | 33695 ft | 526 kts | 51° |
| 2026-04-22 03:35 | 41.07360 | -107.27618 | 33826 ft | 527 kts | 51° |
| 2026-04-22 03:35 | 41.09679 | -107.23875 | 33934 ft | 528 kts | 51° |
| 2026-04-22 03:35 | 41.12012 | -107.20105 | 34025 ft | 528 kts | 51° |